createdAt,value
2023-04-17T00:01:06.718Z,4.63
2023-04-17T00:03:34.159Z,4.38
2023-04-17T00:06:01.747Z,4.50
2023-04-17T00:08:29.205Z,4.40
2023-04-17T00:11:06.470Z,4.32
2023-04-17T00:13:36.275Z,3.63
2023-04-17T00:16:03.783Z,4.50
2023-04-17T00:18:31.191Z,4.97
2023-04-17T00:20:58.616Z,4.55
2023-04-17T00:23:26.474Z,4.18
2023-04-17T00:25:53.860Z,4.35
2023-04-17T00:28:21.291Z,3.72
2023-04-17T00:30:48.781Z,4.63
2023-04-17T00:33:16.294Z,3.78
2023-04-17T00:35:43.684Z,4.40
2023-04-17T00:38:11.047Z,4.07
2023-04-17T00:40:38.468Z,4.22
2023-04-17T00:43:07.147Z,4.10
2023-04-17T00:45:35.367Z,4.32
2023-04-17T00:48:06.832Z,4.13
2023-04-17T00:50:34.846Z,4.53
2023-04-17T00:53:02.480Z,4.07
2023-04-17T00:55:32.308Z,4.65
2023-04-17T00:58:00.197Z,4.65
2023-04-17T01:00:27.644Z,4.13
2023-04-17T01:02:58.104Z,4.32
2023-04-17T01:05:27.451Z,3.88
2023-04-17T01:07:56.937Z,4.60
2023-04-17T01:10:24.519Z,4.15
2023-04-17T01:13:05.488Z,4.32
2023-04-17T01:15:34.984Z,3.70
2023-04-17T01:18:03.168Z,4.20
2023-04-17T01:20:31.378Z,4.03
2023-04-17T01:22:59.568Z,3.50
2023-04-17T01:25:28.321Z,4.28
2023-04-17T01:27:57.035Z,3.85
2023-04-17T01:30:24.899Z,4.18
2023-04-17T01:32:59.629Z,4.18
2023-04-17T01:35:27.366Z,4.90
2023-04-17T01:37:55.912Z,6.10
2023-04-17T01:40:23.384Z,7.80
2023-04-17T01:42:50.787Z,5.75
2023-04-17T01:45:18.294Z,4.75
2023-04-17T01:47:45.849Z,4.90
2023-04-17T01:50:13.583Z,4.40
2023-04-17T01:52:40.999Z,4.20
2023-04-17T01:55:09.606Z,4.30
2023-04-17T01:57:37.361Z,4.68
2023-04-17T02:00:09.473Z,4.10
2023-04-17T02:02:40.203Z,4.18
2023-04-17T02:05:08.105Z,4.20
2023-04-17T02:07:35.555Z,4.80
2023-04-17T02:10:03.039Z,4.28
2023-04-17T02:12:30.701Z,3.97
2023-04-17T02:15:01.186Z,5.05
2023-04-17T02:17:28.808Z,4.60
2023-04-17T02:19:56.619Z,4.38
2023-04-17T02:22:24.042Z,4.40
2023-04-17T02:24:52.230Z,4.38
2023-04-17T02:27:20.502Z,4.25
2023-04-17T02:29:47.875Z,4.20
2023-04-17T02:32:16.860Z,3.92
2023-04-17T02:34:45.202Z,4.15
2023-04-17T02:37:14.636Z,4.32
2023-04-17T02:39:42.068Z,3.97
2023-04-17T02:42:10.232Z,3.85
2023-04-17T02:44:37.765Z,4.35
2023-04-17T02:47:05.492Z,3.85
2023-04-17T02:49:34.090Z,4.22
2023-04-17T02:52:01.552Z,4.60
2023-04-17T02:54:30.325Z,4.13
2023-04-17T02:56:58.653Z,4.65
2023-04-17T02:59:26.978Z,4.28
2023-04-17T03:01:54.565Z,4.45
2023-04-17T03:04:22.085Z,3.95
2023-04-17T03:06:49.559Z,4.65
2023-04-17T03:09:18.280Z,4.30
2023-04-17T03:11:45.674Z,3.83
2023-04-17T03:14:13.068Z,4.05
2023-04-17T03:16:40.710Z,3.90
2023-04-17T03:19:08.672Z,3.90
2023-04-17T03:21:36.767Z,3.65
2023-04-17T03:24:04.563Z,4.00
2023-04-17T03:26:32.075Z,3.85
2023-04-17T03:29:05.092Z,4.15
2023-04-17T03:31:32.568Z,3.70
2023-04-17T03:33:59.953Z,3.50
2023-04-17T03:36:28.389Z,3.88
2023-04-17T03:38:57.753Z,4.28
2023-04-17T03:41:25.365Z,4.05
2023-04-17T03:43:52.859Z,3.97
2023-04-17T03:46:20.348Z,3.60
2023-04-17T03:48:47.795Z,3.42
2023-04-17T03:51:16.873Z,3.70
2023-04-17T03:53:44.636Z,3.75
2023-04-17T03:56:15.273Z,4.20
2023-04-17T03:58:45.274Z,4.40
2023-04-17T04:01:15.905Z,3.50
2023-04-17T04:04:01.874Z,4.50
2023-04-17T04:06:29.951Z,3.53
2023-04-17T04:08:58.082Z,3.40
2023-04-17T04:11:25.460Z,3.60
2023-04-17T04:13:52.876Z,4.10
2023-04-17T04:16:20.337Z,4.25
2023-04-17T04:18:49.395Z,4.03
2023-04-17T04:21:18.326Z,4.57
2023-04-17T04:23:45.912Z,4.20
2023-04-17T04:26:18.380Z,4.45
2023-04-17T04:28:51.479Z,5.07
2023-04-17T04:31:30.506Z,4.30
2023-04-17T04:34:01.311Z,4.68
2023-04-17T04:36:30.318Z,5.05
2023-04-17T04:39:26.916Z,12.02
2023-04-17T04:41:55.622Z,5.70
2023-04-17T04:44:27.090Z,4.72
2023-04-17T04:46:58.120Z,5.05
2023-04-17T04:49:26.580Z,4.93
2023-04-17T04:51:54.107Z,3.95
2023-04-17T04:54:27.385Z,4.50
2023-04-17T04:56:58.292Z,4.32
2023-04-17T04:59:25.773Z,4.63
2023-04-17T05:02:03.548Z,4.50
2023-04-17T05:04:31.454Z,4.32
2023-04-17T05:07:02.052Z,4.20
2023-04-17T05:09:31.880Z,4.18
2023-04-17T05:11:59.611Z,4.32
2023-04-17T05:14:27.633Z,4.18
2023-04-17T05:16:55.688Z,3.85
2023-04-17T05:19:23.483Z,4.15
2023-04-17T05:21:56.134Z,4.45
2023-04-17T05:24:24.431Z,4.00
2023-04-17T05:26:51.909Z,4.05
2023-04-17T05:29:20.712Z,3.60
2023-04-17T05:31:49.789Z,3.35
2023-04-17T05:34:38.057Z,3.28
2023-04-17T05:37:05.678Z,3.17
2023-04-17T05:39:34.354Z,3.95
2023-04-17T05:42:02.492Z,3.60
2023-04-17T05:44:31.037Z,5.03
2023-04-17T05:47:00.281Z,4.00
2023-04-17T05:49:27.724Z,4.28
2023-04-17T05:51:55.203Z,3.95
2023-04-17T05:54:22.906Z,3.40
2023-04-17T05:56:52.015Z,3.75
2023-04-17T05:59:19.536Z,4.00
2023-04-17T06:01:47.088Z,4.43
2023-04-17T06:04:20.145Z,3.95
2023-04-17T06:06:49.252Z,4.10
2023-04-17T06:09:16.976Z,4.18
2023-04-17T06:11:44.392Z,4.10
2023-04-17T06:14:12.717Z,5.00
2023-04-17T06:16:40.569Z,4.00
2023-04-17T06:19:09.174Z,4.20
2023-04-17T06:21:36.697Z,4.60
2023-04-17T06:24:04.244Z,3.90
2023-04-17T06:26:31.640Z,4.25
2023-04-17T06:28:59.116Z,4.40
2023-04-17T06:31:29.714Z,4.32
2023-04-17T06:33:58.117Z,4.03
2023-04-17T06:36:29.556Z,4.63
2023-04-17T06:38:58.879Z,4.35
2023-04-17T06:41:26.311Z,8.43
2023-04-17T06:43:54.693Z,7.85
2023-04-17T06:46:23.003Z,3.40
2023-04-17T06:48:52.289Z,3.90
2023-04-17T06:51:21.746Z,2.95
2023-04-17T06:53:49.150Z,2.85
2023-04-17T06:56:16.878Z,3.00
2023-04-17T06:58:45.818Z,2.88
2023-04-17T07:01:14.102Z,3.05
2023-04-17T07:03:43.160Z,2.97
2023-04-17T07:06:11.008Z,2.50
2023-04-17T07:08:38.904Z,2.72
2023-04-17T07:11:06.612Z,3.10
2023-04-17T07:13:34.037Z,3.00
2023-04-17T07:16:01.712Z,33.90
2023-04-17T07:18:29.702Z,32.45
2023-04-17T07:20:57.229Z,9.30
2023-04-17T07:23:24.643Z,4.00
2023-04-17T07:25:52.081Z,3.85
2023-04-17T07:28:19.608Z,4.05
2023-04-17T07:30:47.224Z,3.05
2023-04-17T07:33:14.644Z,3.80
2023-04-17T07:35:43.505Z,3.60
2023-04-17T07:38:11.147Z,3.55
2023-04-17T07:40:39.477Z,3.80
2023-04-17T07:43:06.901Z,7.20
2023-04-17T07:45:37.264Z,5.18
2023-04-17T07:48:06.212Z,5.72
2023-04-17T07:50:33.723Z,3.00
2023-04-17T07:53:01.279Z,3.45
2023-04-17T07:55:28.798Z,3.60
2023-04-17T07:57:56.588Z,4.22
2023-04-17T08:00:24.605Z,3.33
2023-04-17T08:02:52.480Z,3.55
2023-04-17T08:05:20.146Z,3.45
2023-04-17T08:07:47.567Z,2.80
2023-04-17T08:10:15.449Z,3.42
2023-04-17T08:12:42.824Z,2.92
2023-04-17T08:15:10.671Z,2.90
2023-04-17T08:17:38.111Z,3.50
2023-04-17T08:20:10.552Z,5.50
2023-04-17T08:25:10.048Z,3.90
2023-04-17T08:27:41.448Z,3.92
2023-04-17T08:30:13.040Z,3.80
2023-04-17T08:32:46.420Z,3.00
2023-04-17T08:35:15.420Z,2.78
2023-04-17T08:37:46.785Z,2.20
2023-04-17T08:40:15.397Z,2.47
2023-04-17T08:42:43.519Z,2.50
2023-04-17T08:45:13.154Z,2.50
2023-04-17T08:47:42.455Z,2.85
2023-04-17T08:50:18.467Z,2.55
2023-04-17T08:52:47.979Z,2.20
2023-04-17T08:55:18.137Z,2.30
2023-04-17T08:58:04.979Z,2.60
2023-04-17T09:00:38.750Z,3.20
2023-04-17T09:03:11.234Z,3.22
2023-04-17T09:05:41.822Z,2.72
2023-04-17T09:08:14.377Z,2.83
2023-04-17T09:10:42.967Z,2.08
2023-04-17T09:13:16.141Z,2.58
2023-04-17T09:15:46.607Z,2.55
2023-04-17T09:18:32.816Z,2.22
2023-04-17T09:21:01.615Z,3.15
2023-04-17T09:23:31.184Z,2.83
2023-04-17T09:26:10.440Z,3.20
2023-04-17T09:28:41.495Z,5.00
2023-04-17T09:31:17.860Z,3.17
2023-04-17T09:33:59.431Z,3.08
2023-04-17T09:36:32.085Z,9.18
2023-04-17T09:39:03.560Z,3.83
2023-04-17T09:41:39.379Z,4.10
2023-04-17T09:44:06.933Z,3.47
2023-04-17T09:46:48.612Z,3.90
2023-04-17T09:49:23.523Z,3.30
2023-04-17T09:51:52.514Z,3.45
2023-04-17T09:54:23.047Z,3.63
2023-04-17T09:56:52.363Z,4.20
2023-04-17T09:59:20.063Z,4.45
2023-04-17T10:01:47.470Z,3.35
2023-04-17T10:04:15.651Z,3.75
2023-04-17T10:06:43.298Z,3.85
2023-04-17T10:09:10.742Z,4.05
2023-04-17T10:11:41.739Z,4.45
2023-04-17T10:14:13.798Z,3.08
2023-04-17T10:16:44.917Z,4.00
2023-04-17T10:19:32.040Z,2.92
2023-04-17T10:22:20.608Z,3.03
2023-04-17T10:24:53.441Z,3.78
2023-04-17T10:27:27.494Z,3.65
2023-04-17T10:29:59.271Z,3.50
2023-04-17T10:32:31.155Z,2.83
2023-04-17T10:34:59.689Z,3.78
2023-04-17T10:37:51.788Z,3.88
2023-04-17T10:40:31.704Z,2.40
2023-04-17T10:43:06.611Z,2.38
2023-04-17T10:46:22.099Z,2.90
2023-04-17T10:48:52.682Z,2.90
2023-04-17T10:51:29.351Z,2.95
2023-04-17T10:54:00.947Z,3.40
2023-04-17T10:56:39.182Z,2.97
2023-04-17T10:59:08.917Z,9.93
2023-04-17T11:01:59.579Z,3.08
2023-04-17T11:04:30.770Z,3.20
2023-04-17T11:06:58.687Z,3.17
2023-04-17T11:09:28.368Z,3.00
2023-04-17T11:11:59.870Z,3.58
2023-04-17T11:14:27.670Z,1.73
2023-04-17T11:16:56.105Z,1.40
2023-04-17T11:19:25.723Z,1.10
2023-04-17T11:21:57.223Z,1.13
2023-04-17T11:24:26.663Z,1.30
2023-04-17T11:26:56.223Z,1.30
2023-04-17T11:29:24.610Z,1.60
2023-04-17T11:31:54.043Z,1.17
2023-04-17T11:34:22.533Z,2.05
2023-04-17T11:36:56.322Z,2.78
2023-04-17T11:39:25.809Z,3.97
2023-04-17T11:41:53.461Z,3.42
2023-04-17T11:44:21.207Z,3.58
2023-04-17T11:46:52.624Z,3.00
2023-04-17T11:49:37.479Z,3.28
2023-04-17T11:52:05.756Z,3.53
2023-04-17T11:54:37.931Z,3.72
2023-04-17T11:57:06.310Z,2.70
2023-04-17T11:59:35.846Z,2.97
2023-04-17T12:02:04.074Z,3.25
2023-04-17T12:04:35.018Z,3.30
2023-04-17T12:07:06.916Z,3.25
2023-04-17T12:09:35.641Z,3.20
2023-04-17T12:12:07.543Z,3.15
2023-04-17T12:14:35.491Z,2.50
2023-04-17T12:17:02.851Z,2.92
2023-04-17T12:19:31.952Z,3.08
2023-04-17T12:21:59.718Z,2.92
2023-04-17T12:24:27.259Z,3.20
2023-04-17T12:26:54.903Z,2.50
2023-04-17T12:29:36.273Z,3.28
2023-04-17T12:32:10.787Z,3.28
2023-04-17T12:34:38.435Z,2.80
2023-04-17T12:37:06.015Z,2.20
2023-04-17T12:39:33.392Z,3.10
2023-04-17T12:42:04.177Z,2.60
2023-04-17T12:44:31.559Z,2.33
2023-04-17T12:46:59.004Z,2.88
2023-04-17T12:49:26.385Z,2.65
2023-04-17T12:51:53.956Z,1.92
2023-04-17T12:54:21.424Z,2.53
2023-04-17T12:56:48.884Z,2.38
2023-04-17T12:59:16.750Z,2.38
2023-04-17T13:01:44.309Z,2.08
2023-04-17T13:04:14.817Z,2.00
2023-04-17T13:06:42.563Z,2.10
2023-04-17T13:09:10.248Z,2.10
2023-04-17T13:11:37.746Z,1.98
2023-04-17T13:14:05.097Z,2.58
2023-04-17T13:16:32.498Z,2.47
2023-04-17T13:18:59.943Z,2.42
2023-04-17T13:21:27.579Z,2.47
2023-04-17T13:23:54.996Z,2.20
2023-04-17T13:26:22.349Z,2.47
2023-04-17T13:28:49.786Z,2.20
2023-04-17T13:31:17.273Z,3.30
2023-04-17T13:33:44.902Z,3.33
2023-04-17T13:36:12.453Z,3.28
2023-04-17T13:38:39.848Z,3.22
2023-04-17T13:41:08.086Z,3.40
2023-04-17T13:43:35.579Z,3.15
2023-04-17T13:46:03.039Z,3.03
2023-04-17T13:48:30.511Z,2.80
2023-04-17T13:50:57.905Z,3.30
2023-04-17T13:53:25.368Z,3.30
2023-04-17T13:55:52.801Z,3.45
2023-04-17T13:58:20.585Z,3.55
2023-04-17T14:00:48.207Z,3.88
2023-04-17T14:03:15.756Z,5.53
2023-04-17T14:05:43.414Z,6.22
2023-04-17T14:08:11.032Z,3.72
2023-04-17T14:10:38.437Z,4.53
2023-04-17T14:13:07.063Z,4.20
2023-04-17T14:15:34.494Z,4.72
2023-04-17T14:18:02.028Z,5.70
2023-04-17T14:20:29.604Z,4.20
2023-04-17T14:22:57.029Z,4.43
2023-04-17T14:25:24.453Z,4.07
2023-04-17T14:27:52.560Z,7.03
2023-04-17T14:30:20.178Z,3.80
2023-04-17T14:32:49.574Z,3.47
2023-04-17T14:35:17.124Z,3.63
2023-04-17T14:37:44.539Z,3.60
2023-04-17T14:40:12.521Z,4.47
2023-04-17T14:42:53.069Z,4.35
2023-04-17T14:45:21.849Z,4.20
2023-04-17T14:47:49.407Z,4.22
2023-04-17T14:50:17.815Z,4.30
2023-04-17T14:52:45.390Z,4.40
2023-04-17T14:55:13.296Z,4.25
2023-04-17T14:57:40.735Z,5.00
2023-04-17T15:00:10.018Z,4.53
2023-04-17T15:02:39.396Z,3.92
2023-04-17T15:05:09.882Z,4.28
2023-04-17T15:07:38.827Z,4.05
2023-04-17T15:10:09.686Z,4.18
2023-04-17T15:12:37.755Z,3.90
2023-04-17T15:15:06.471Z,4.10
2023-04-17T15:17:35.732Z,4.03
2023-04-17T15:20:04.185Z,4.45
2023-04-17T15:22:32.348Z,3.80
2023-04-17T15:24:59.922Z,3.58
2023-04-17T15:27:27.434Z,3.70
2023-04-17T15:29:54.812Z,3.88
2023-04-17T15:32:22.309Z,4.50
2023-04-17T15:34:51.178Z,3.80
2023-04-17T15:37:20.792Z,4.13
2023-04-17T15:39:48.454Z,11.68
2023-04-17T15:42:15.904Z,8.90
2023-04-17T15:44:43.344Z,3.97
2023-04-17T15:47:10.744Z,3.58
2023-04-17T15:49:38.160Z,3.53
2023-04-17T15:52:06.432Z,3.55
2023-04-17T15:54:33.941Z,3.45
2023-04-17T15:57:01.321Z,3.85
2023-04-17T15:59:28.702Z,3.47
2023-04-17T16:01:56.303Z,4.30
2023-04-17T16:04:23.899Z,4.15
2023-04-17T16:06:51.577Z,4.25
2023-04-17T16:09:23.404Z,5.05
2023-04-17T16:11:51.413Z,4.75
2023-04-17T16:14:18.791Z,4.55
2023-04-17T16:16:46.172Z,5.80
2023-04-17T16:19:13.861Z,5.80
2023-04-17T16:21:42.356Z,4.88
2023-04-17T16:24:09.804Z,4.68
2023-04-17T16:26:40.242Z,4.50
2023-04-17T16:29:07.629Z,4.55
2023-04-17T16:31:35.080Z,4.13
2023-04-17T16:34:03.089Z,4.47
2023-04-17T16:36:32.801Z,4.63
2023-04-17T16:39:02.373Z,4.32
2023-04-17T16:41:31.006Z,4.93
2023-04-17T16:43:58.510Z,6.65
2023-04-17T16:46:35.547Z,8.38
2023-04-17T16:49:14.486Z,5.97
2023-04-17T16:51:42.574Z,5.38
2023-04-17T16:54:10.081Z,4.75
2023-04-17T16:56:37.536Z,4.35
2023-04-17T16:59:05.385Z,4.47
2023-04-17T17:01:33.015Z,4.40
2023-04-17T17:04:00.551Z,4.40
2023-04-17T17:06:28.108Z,3.83
2023-04-17T17:08:55.710Z,3.95
2023-04-17T17:11:23.736Z,4.00
2023-04-17T17:13:53.049Z,4.53
2023-04-17T17:16:21.159Z,5.13
2023-04-17T17:18:49.064Z,4.95
2023-04-17T17:21:16.662Z,4.20
2023-04-17T17:23:44.079Z,5.15
2023-04-17T17:26:11.447Z,5.80
2023-04-17T17:28:41.148Z,4.72
2023-04-17T17:31:09.330Z,4.65
2023-04-17T17:33:37.111Z,4.30
2023-04-17T17:36:05.566Z,4.45
2023-04-17T17:38:33.863Z,4.55
2023-04-17T17:41:01.235Z,4.95
2023-04-17T17:43:28.656Z,5.43
2023-04-17T17:45:56.163Z,5.78
2023-04-17T17:48:23.571Z,5.03
2023-04-17T17:50:54.681Z,5.53
2023-04-17T17:53:26.298Z,5.90
2023-04-17T17:55:56.047Z,7.05
2023-04-17T17:58:23.788Z,7.50
2023-04-17T18:00:51.525Z,8.20
2023-04-17T18:03:19.438Z,11.52
2023-04-17T18:05:47.483Z,15.38
2023-04-17T18:08:15.179Z,19.45
2023-04-17T18:10:42.757Z,17.88
2023-04-17T18:13:10.147Z,13.52
2023-04-17T18:15:37.577Z,10.25
2023-04-17T18:18:05.150Z,9.95
2023-04-17T18:20:36.629Z,8.75
2023-04-17T18:23:04.093Z,8.00
2023-04-17T18:25:31.692Z,8.43
2023-04-17T18:27:59.048Z,8.07
2023-04-17T18:30:26.511Z,8.40
2023-04-17T18:32:53.890Z,7.75
2023-04-17T18:35:21.301Z,8.05
2023-04-17T18:37:49.541Z,8.40
2023-04-17T18:40:17.042Z,11.05
2023-04-17T18:42:44.454Z,12.68
2023-04-17T18:45:15.763Z,10.70
2023-04-17T18:47:43.457Z,11.80
2023-04-17T18:50:11.404Z,11.75
2023-04-17T18:52:42.625Z,10.93
2023-04-17T18:55:11.908Z,10.00
2023-04-17T18:57:39.506Z,10.32
2023-04-17T19:00:07.757Z,10.10
2023-04-17T19:02:36.353Z,10.60
2023-04-17T19:05:04.592Z,11.23
2023-04-17T19:07:32.067Z,11.07
2023-04-17T19:09:59.489Z,9.57
2023-04-17T19:12:26.871Z,10.10
2023-04-17T19:14:57.102Z,9.43
2023-04-17T19:17:25.478Z,8.75
2023-04-17T19:19:52.927Z,8.80
2023-04-17T19:22:20.403Z,8.80
2023-04-17T19:24:50.126Z,9.30
2023-04-17T19:27:17.698Z,10.05
2023-04-17T19:29:45.927Z,9.50
2023-04-17T19:32:16.562Z,9.45
2023-04-17T19:34:44.435Z,9.48
2023-04-17T19:37:11.878Z,9.13
2023-04-17T19:39:39.372Z,8.85
2023-04-17T19:42:07.660Z,8.32
2023-04-17T19:44:35.103Z,9.40
2023-04-17T19:47:02.861Z,8.13
2023-04-17T19:49:31.320Z,8.05
2023-04-17T19:52:01.613Z,9.30
2023-04-17T19:54:29.541Z,9.52
2023-04-17T19:56:56.960Z,9.43
2023-04-17T19:59:24.630Z,8.95
2023-04-17T20:01:52.090Z,9.07
2023-04-17T20:04:19.779Z,10.50
2023-04-17T20:06:47.296Z,9.27
2023-04-17T20:09:15.401Z,8.88
2023-04-17T20:11:43.343Z,9.48
2023-04-17T20:14:11.286Z,9.90
2023-04-17T20:16:38.805Z,9.65
2023-04-17T20:19:06.204Z,10.25
2023-04-17T20:21:33.585Z,10.50
2023-04-17T20:24:01.603Z,10.40
2023-04-17T20:26:29.474Z,10.20
2023-04-17T20:28:56.879Z,11.90
2023-04-17T20:31:24.334Z,10.23
2023-04-17T20:33:51.863Z,9.90
2023-04-17T20:36:19.249Z,11.02
2023-04-17T20:38:46.789Z,10.13
2023-04-17T20:41:14.233Z,9.95
2023-04-17T20:43:41.932Z,16.40
2023-04-17T20:46:09.515Z,11.00
2023-04-17T20:48:36.945Z,10.13
2023-04-17T20:51:05.897Z,10.00
2023-04-17T20:53:33.372Z,9.00
2023-04-17T20:56:00.956Z,8.82
2023-04-17T20:58:28.354Z,8.73
2023-04-17T21:01:01.080Z,8.93
2023-04-17T21:03:33.005Z,9.50
2023-04-17T21:06:01.069Z,9.20
2023-04-17T21:08:29.238Z,9.40
2023-04-17T21:10:57.301Z,9.55
2023-04-17T21:13:24.723Z,8.93
2023-04-17T21:15:52.133Z,9.57
2023-04-17T21:18:19.716Z,10.82
2023-04-17T21:20:47.082Z,9.35
2023-04-17T21:23:14.809Z,9.15
2023-04-17T21:25:42.263Z,8.43
2023-04-17T21:28:09.645Z,8.75
2023-04-17T21:30:37.380Z,9.52
2023-04-17T21:33:04.964Z,10.45
2023-04-17T21:35:32.445Z,10.80
2023-04-17T21:37:59.828Z,9.32
2023-04-17T21:40:30.987Z,10.35
2023-04-17T21:43:01.629Z,9.52
2023-04-17T21:45:30.692Z,9.57
2023-04-17T21:47:58.211Z,9.80
2023-04-17T21:50:25.764Z,9.60
2023-04-17T21:52:53.144Z,9.90
2023-04-17T21:55:20.686Z,9.63
2023-04-17T21:57:48.028Z,9.00
2023-04-17T22:00:15.892Z,9.00
2023-04-17T22:02:43.434Z,10.07
2023-04-17T22:05:11.625Z,9.30
2023-04-17T22:07:53.841Z,9.48
2023-04-17T22:10:23.759Z,10.07
2023-04-17T22:12:51.300Z,10.25
2023-04-17T22:15:18.914Z,9.43
2023-04-17T22:17:46.429Z,11.02
2023-04-17T22:20:13.848Z,10.68
2023-04-17T22:22:41.212Z,10.07
2023-04-17T22:25:09.025Z,9.23
2023-04-17T22:27:36.377Z,10.00
2023-04-17T22:30:04.195Z,11.48
2023-04-17T22:32:33.922Z,10.88
2023-04-17T22:35:01.582Z,10.05
2023-04-17T22:37:29.048Z,11.90
2023-04-17T22:39:56.454Z,10.30
2023-04-17T22:42:23.852Z,10.77
2023-04-17T22:44:51.941Z,10.68
2023-04-17T22:47:21.560Z,10.43
2023-04-17T22:49:48.968Z,11.07
2023-04-17T22:52:16.330Z,11.23
2023-04-17T22:54:43.722Z,10.75
2023-04-17T22:57:11.374Z,10.93
2023-04-17T22:59:40.090Z,12.38
2023-04-17T23:02:08.271Z,11.27
2023-04-17T23:04:35.835Z,10.80
2023-04-17T23:07:03.233Z,12.38
2023-04-17T23:09:30.628Z,12.40
2023-04-17T23:11:58.037Z,11.57
2023-04-17T23:14:26.255Z,10.80
2023-04-17T23:16:53.671Z,11.00
2023-04-17T23:19:22.443Z,10.93
2023-04-17T23:21:49.954Z,10.82
2023-04-17T23:24:17.350Z,10.82
2023-04-17T23:26:44.788Z,10.52
2023-04-17T23:29:12.151Z,11.32
2023-04-17T23:31:39.593Z,10.65
2023-04-17T23:34:07.042Z,10.52
2023-04-17T23:36:34.442Z,10.30
2023-04-17T23:39:01.839Z,10.27
2023-04-17T23:41:29.666Z,11.32
2023-04-17T23:43:57.232Z,11.23
2023-04-17T23:46:24.655Z,10.13
2023-04-17T23:48:52.094Z,11.23
2023-04-17T23:51:19.463Z,11.45
2023-04-17T23:53:46.879Z,11.68
2023-04-17T23:56:14.291Z,10.27
2023-04-17T23:58:41.696Z,9.32
